Time;durP1;ratioP1;P1;durP2;ratioP2;P2;SDS_P1;SDS_P2;PMS_P1;PMS_P2;Temp;Humidity;BMP_temperature;BMP_pressure;BME280_temperature;BME280_humidity;BME280_pressure;Samples;Min_cycle;Max_cycle;Signal;HPM_P1;HPM_P2
2023/03/27 00:01:20;;;;;;;68.15;30.88;;;20.80;60.20;;;;;;5017030;28;20479;-75
2023/03/27 00:03:48;;;;;;;71.32;31.77;;;20.90;61.80;;;;;;5032741;28;20055;-75
2023/03/27 00:06:16;;;;;;;73.05;29.65;;;20.90;62.40;;;;;;5016381;28;20503;-76
2023/03/27 00:08:45;;;;;;;69.07;29.80;;;20.90;61.80;;;;;;5052115;28;20055;-76
2023/03/27 00:11:11;;;;;;;67.18;30.85;;;20.90;61.50;;;;;;5051756;28;20434;-76
2023/03/27 00:13:38;;;;;;;60.38;28.77;;;20.90;61.70;;;;;;5052104;28;20487;-76
2023/03/27 00:16:05;;;;;;;63.10;29.65;;;20.90;61.70;;;;;;5051888;28;20035;-76
2023/03/27 00:18:32;;;;;;;69.28;29.38;;;20.90;62.40;;;;;;5051787;28;20039;-76
2023/03/27 00:20:59;;;;;;;65.20;29.45;;;20.90;62.50;;;;;;5051639;28;20021;-76
2023/03/27 00:23:28;;;;;;;59.85;27.35;;;20.90;63.00;;;;;;5051554;28;20032;-76
2023/03/27 00:25:56;;;;;;;63.35;29.02;;;20.90;62.80;;;;;;5034031;28;20048;-75
2023/03/27 00:28:25;;;;;;;66.93;28.48;;;20.90;63.40;;;;;;5033851;28;20029;-75
2023/03/27 00:30:53;;;;;;;64.43;28.88;;;20.90;62.70;;;;;;5033311;28;20075;-76
2023/03/27 00:33:19;;;;;;;61.90;27.80;;;20.90;63.40;;;;;;5033284;28;20037;-76
2023/03/27 00:35:46;;;;;;;59.92;26.85;;;20.90;63.10;;;;;;5031975;28;20074;-75
2023/03/27 00:38:13;;;;;;;59.42;25.85;;;20.90;63.40;;;;;;5032145;28;20036;-75
2023/03/27 00:40:42;;;;;;;61.75;28.25;;;20.90;62.20;;;;;;5049541;28;20430;-75
2023/03/27 00:43:32;;;;;;;63.92;26.45;;;20.90;63.90;;;;;;5049158;28;20048;-75
2023/03/27 00:46:20;;;;;;;;;;;20.90;64.10;;;;;;5033370;28;20080;-75
2023/03/27 00:48:50;;;;;;;64.25;25.73;;;20.90;63.90;;;;;;5050919;28;20374;-75
2023/03/27 00:51:18;;;;;;;60.80;27.10;;;20.90;64.20;;;;;;5032979;28;20033;-76
2023/03/27 00:53:45;;;;;;;63.00;26.60;;;20.90;64.10;;;;;;5049473;28;20032;-75
2023/03/27 00:56:12;;;;;;;55.60;25.00;;;20.90;64.30;;;;;;5050775;28;20029;-75
2023/03/27 00:58:45;;;;;;;57.15;25.25;;;20.90;64.20;;;;;;5016132;28;20380;-76
2023/03/27 01:01:13;;;;;;;54.47;25.13;;;20.80;64.10;;;;;;5053101;28;20047;-76
2023/03/27 01:03:42;;;;;;;56.40;24.23;;;20.80;64.10;;;;;;5048461;28;20036;-75
2023/03/27 01:06:10;;;;;;;68.37;25.73;;;20.90;64.30;;;;;;5037078;28;20084;-76
2023/03/27 01:08:37;;;;;;;53.03;24.63;;;20.80;63.90;;;;;;5033274;28;20040;-76
2023/03/27 01:11:40;;;;;;;56.33;24.30;;;20.80;64.20;;;;;;5037025;28;20025;-76
2023/03/27 01:14:21;;;;;;;53.38;24.00;;;20.80;64.00;;;;;;5031180;28;20541;-76
2023/03/27 01:17:32;;;;;;;46.15;22.77;;;20.80;64.40;;;;;;5033009;28;20456;-76
2023/03/27 01:20:13;;;;;;;45.92;22.10;;;20.80;63.90;;;;;;5018654;28;20037;-76
2023/03/27 01:23:18;;;;;;;50.35;23.13;;;20.80;63.80;;;;;;5048731;28;20417;-76
2023/03/27 01:25:49;;;;;;;53.60;24.13;;;20.80;64.30;;;;;;5036933;28;20505;-75
2023/03/27 01:28:20;;;;;;;53.15;23.48;;;20.80;64.70;;;;;;5036042;28;20486;-76
2023/03/27 01:31:09;;;;;;;49.35;21.13;;;20.80;64.30;;;;;;5052780;28;20494;-76
2023/03/27 01:34:01;;;;;;;45.55;20.75;;;20.80;64.90;;;;;;5033501;28;20091;-76
2023/03/27 01:36:42;;;;;;;50.85;22.80;;;20.80;64.90;;;;;;5035608;28;20083;-76
2023/03/27 01:39:33;;;;;;;52.97;21.17;;;20.80;65.60;;;;;;5053556;28;20481;-76
2023/03/27 01:42:02;;;;;;;44.72;20.90;;;20.80;65.50;;;;;;5035529;28;20029;-76
2023/03/27 01:44:45;;;;;;;47.83;21.40;;;20.80;65.30;;;;;;5035766;28;20033;-76
2023/03/27 01:47:21;;;;;;;46.92;21.27;;;20.80;65.00;;;;;;5035348;28;20558;-76
2023/03/27 01:49:56;;;;;;;45.25;20.20;;;20.80;64.90;;;;;;5053271;28;20037;-77
2023/03/27 01:52:30;;;;;;;43.88;21.35;;;20.90;65.70;;;;;;5035183;28;20079;-76
2023/03/27 01:55:02;;;;;;;42.78;20.13;;;20.80;65.60;;;;;;5050889;28;20033;-76
2023/03/27 01:57:36;;;;;;;42.20;19.42;;;20.80;65.80;;;;;;5035290;28;20037;-76
2023/03/27 02:00:12;;;;;;;44.42;20.05;;;20.80;65.10;;;;;;5035688;28;20021;-77
2023/03/27 02:02:50;;;;;;;38.90;19.15;;;20.80;64.90;;;;;;5053323;28;20025;-76
2023/03/27 02:05:22;;;;;;;42.08;19.38;;;20.80;64.90;;;;;;5035332;28;20036;-76
2023/03/27 02:07:58;;;;;;;43.92;20.13;;;20.80;65.20;;;;;;5018869;28;20033;-76
2023/03/27 02:10:31;;;;;;;41.15;19.90;;;20.80;65.80;;;;;;5035062;28;20036;-76
2023/03/27 02:13:03;;;;;;;41.13;18.52;;;20.80;65.60;;;;;;5051813;28;20037;-77
2023/03/27 02:15:32;;;;;;;38.85;17.73;;;20.80;65.50;;;;;;5051473;28;20036;-76
2023/03/27 02:18:04;;;;;;;44.30;19.55;;;20.80;65.00;;;;;;5034706;28;20470;-75
2023/03/27 02:20:32;;;;;;;44.67;19.20;;;20.80;66.00;;;;;;5018597;28;20394;-76
2023/03/27 02:22:59;;;;;;;39.08;18.48;;;20.80;64.60;;;;;;5034588;28;20032;-76
2023/03/27 02:25:34;;;;;;;42.47;20.38;;;20.80;66.10;;;;;;5034557;28;20029;-76
2023/03/27 02:28:03;;;;;;;40.22;19.52;;;20.80;65.20;;;;;;5048141;28;20432;-76
2023/03/27 02:30:38;;;;;;;38.67;19.35;;;20.80;66.40;;;;;;5034964;28;20029;-76
2023/03/27 02:33:18;;;;;;;35.45;18.25;;;20.80;66.60;;;;;;5034599;28;20608;-76
2023/03/27 02:35:54;;;;;;;40.13;18.48;;;20.80;66.30;;;;;;5051260;28;20039;-76
2023/03/27 02:38:58;;;;;;;38.22;17.73;;;20.80;66.20;;;;;;5017705;28;20079;-76
2023/03/27 02:41:41;;;;;;;36.45;17.92;;;20.80;66.30;;;;;;5023157;28;20513;-76
2023/03/27 02:44:37;;;;;;;38.47;16.40;;;20.80;66.20;;;;;;5032551;28;20037;-76
2023/03/27 02:47:17;;;;;;;34.47;16.70;;;20.80;65.90;;;;;;5027304;28;20033;-76
2023/03/27 02:49:48;;;;;;;37.10;16.98;;;20.80;66.00;;;;;;5018170;28;20499;-76
2023/03/27 02:52:21;;;;;;;35.47;17.13;;;20.80;66.10;;;;;;5034459;28;20029;-76
2023/03/27 02:54:54;;;;;;;34.83;15.88;;;20.80;65.50;;;;;;5034220;28;20027;-76
2023/03/27 02:57:25;;;;;;;39.17;16.67;;;20.80;66.30;;;;;;5017292;28;20053;-75
2023/03/27 03:00:24;;;;;;;37.53;16.95;;;20.80;65.00;;;;;;5050057;28;20033;-75
2023/03/27 03:03:09;;;;;;;39.45;15.70;;;20.80;65.10;;;;;;5017908;28;20394;-75
2023/03/27 03:05:36;;;;;;;36.87;15.60;;;20.80;65.40;;;;;;5017892;28;20033;-75
2023/03/27 03:08:03;;;;;;;36.50;16.08;;;20.80;66.00;;;;;;5051729;28;20056;-75
2023/03/27 03:10:29;;;;;;;34.72;15.30;;;20.70;65.70;;;;;;5030742;28;20506;-75
2023/03/27 03:12:56;;;;;;;30.48;15.32;;;20.80;65.80;;;;;;5050416;28;20251;-75
2023/03/27 03:15:22;;;;;;;38.20;16.27;;;20.70;65.80;;;;;;5033290;28;20028;-75
2023/03/27 03:17:48;;;;;;;31.08;15.38;;;20.70;66.50;;;;;;5016748;28;20082;-75
2023/03/27 03:20:15;;;;;;;34.25;15.02;;;20.70;66.40;;;;;;5033912;28;20430;-75
2023/03/27 03:22:41;;;;;;;27.67;14.13;;;20.70;66.20;;;;;;5049617;28;20086;-75
2023/03/27 03:25:09;;;;;;;28.55;14.00;;;20.70;65.80;;;;;;5033522;28;20056;-75
2023/03/27 03:27:36;;;;;;;28.42;13.77;;;20.70;65.90;;;;;;5050158;28;20032;-75
2023/03/27 03:30:08;;;;;;;29.23;13.90;;;20.70;65.70;;;;;;5017239;28;20036;-75
2023/03/27 03:32:42;;;;;;;30.35;13.85;;;20.70;66.00;;;;;;5051461;28;20490;-75
2023/03/27 03:35:08;;;;;;;33.85;15.10;;;20.70;66.20;;;;;;5033869;28;20033;-75
2023/03/27 03:37:37;;;;;;;30.63;14.07;;;20.70;66.00;;;;;;5032727;28;20059;-75
2023/03/27 03:40:12;;;;;;;29.73;14.27;;;20.70;65.70;;;;;;5017383;28;20025;-75
2023/03/27 03:42:50;;;;;;;29.25;14.00;;;20.70;66.00;;;;;;5013600;28;20034;-75
2023/03/27 03:45:19;;;;;;;29.38;13.70;;;20.70;65.50;;;;;;5030364;28;20036;-75
2023/03/27 03:47:45;;;;;;;27.30;13.90;;;20.70;65.40;;;;;;5013343;28;20033;-75
2023/03/27 03:50:12;;;;;;;26.20;12.63;;;20.70;65.50;;;;;;5030293;28;20427;-75
2023/03/27 03:52:38;;;;;;;27.00;12.93;;;20.70;65.50;;;;;;5042483;28;20029;-75
2023/03/27 03:55:05;;;;;;;29.33;13.32;;;20.70;65.50;;;;;;5017075;28;20025;-75
2023/03/27 03:57:32;;;;;;;26.52;13.15;;;20.70;65.50;;;;;;5032971;28;20439;-75
2023/03/27 04:00:11;;;;;;;26.92;13.20;;;20.70;65.80;;;;;;5033278;28;20036;-75
2023/03/27 04:02:52;;;;;;;27.15;13.02;;;20.70;65.90;;;;;;5032976;28;20033;-75
2023/03/27 04:05:19;;;;;;;24.67;11.98;;;20.70;65.90;;;;;;5033606;28;20040;-75
2023/03/27 04:07:50;;;;;;;23.73;12.48;;;20.70;65.90;;;;;;5029657;28;20030;-75
2023/03/27 04:10:28;;;;;;;25.75;12.43;;;20.70;65.80;;;;;;5031262;28;20033;-75
2023/03/27 04:12:57;;;;;;;22.95;11.63;;;20.70;65.30;;;;;;5045672;28;20032;-75
2023/03/27 04:15:32;;;;;;;25.95;12.48;;;20.70;65.40;;;;;;5032959;28;20166;-75
2023/03/27 04:18:13;;;;;;;25.88;12.32;;;20.70;64.90;;;;;;5018334;28;20025;-75
2023/03/27 04:20:40;;;;;;;25.23;12.63;;;20.70;64.80;;;;;;5016826;28;20029;-76
2023/03/27 04:23:09;;;;;;;;;;;20.70;64.90;;;;;;5033404;28;20045;-75
2023/03/27 04:25:39;;;;;;;27.20;12.38;;;20.70;65.00;;;;;;5016654;28;19908;-75
2023/03/27 04:28:09;;;;;;;25.52;11.38;;;20.80;64.90;;;;;;5032653;28;20029;-75
2023/03/27 04:30:49;;;;;;;24.95;11.77;;;20.70;64.90;;;;;;5032902;28;20401;-75
2023/03/27 04:33:53;;;;;;;26.42;12.43;;;20.70;64.90;;;;;;5033205;28;20146;-75
2023/03/27 04:36:38;;;;;;;22.17;11.77;;;20.80;65.00;;;;;;5053356;28;20036;-74
2023/03/27 04:39:09;;;;;;;25.67;12.35;;;20.80;64.80;;;;;;5053319;28;20406;-75
2023/03/27 04:41:37;;;;;;;24.35;11.93;;;20.80;65.00;;;;;;5036966;28;20021;-74
2023/03/27 04:44:04;;;;;;;21.42;11.15;;;20.80;64.80;;;;;;5020397;28;20383;-74
2023/03/27 04:46:30;;;;;;;23.50;10.82;;;20.80;64.90;;;;;;5020257;28;20056;-74
2023/03/27 04:49:02;;;;;;;20.98;10.32;;;20.80;64.80;;;;;;5052881;28;20033;-74
2023/03/27 04:51:48;;;;;;;24.00;11.48;;;20.80;64.80;;;;;;5052739;28;20514;-75
2023/03/27 04:54:14;;;;;;;24.33;10.82;;;20.80;65.10;;;;;;5019629;28;20051;-75
2023/03/27 04:56:44;;;;;;;22.63;10.93;;;20.80;65.10;;;;;;5020137;28;20501;-74
2023/03/27 04:59:10;;;;;;;24.10;10.75;;;20.80;64.90;;;;;;5032752;28;20017;-74
2023/03/27 05:01:36;;;;;;;24.20;11.43;;;20.80;64.90;;;;;;5033396;28;20053;-75
2023/03/27 05:04:31;;;;;;;24.92;10.52;;;20.80;64.90;;;;;;5006978;28;20507;-75
2023/03/27 05:07:13;;;;;;;22.52;10.82;;;20.80;64.80;;;;;;5035617;28;20063;-75
2023/03/27 05:09:40;;;;;;;22.20;10.88;;;20.80;64.90;;;;;;5032959;28;20030;-75
2023/03/27 05:12:07;;;;;;;22.25;10.23;;;20.70;64.70;;;;;;5016860;28;20068;-75
2023/03/27 05:14:39;;;;;;;26.15;10.63;;;20.70;64.90;;;;;;5016679;28;20038;-75
2023/03/27 05:17:11;;;;;;;21.35;9.88;;;20.70;65.10;;;;;;5016046;28;20037;-75
2023/03/27 05:19:39;;;;;;;22.02;10.25;;;20.70;64.80;;;;;;5032618;28;20454;-75
2023/03/27 05:22:06;;;;;;;20.20;9.43;;;20.70;64.90;;;;;;5034417;28;20082;-75
2023/03/27 05:24:36;;;;;;;20.17;9.90;;;20.80;65.00;;;;;;5019551;28;20064;-75
2023/03/27 05:27:02;;;;;;;17.92;9.30;;;20.70;64.70;;;;;;5032385;28;20033;-75
2023/03/27 05:29:29;;;;;;;21.27;11.02;;;20.80;64.80;;;;;;5019364;28;20040;-75
2023/03/27 05:32:01;;;;;;;19.33;9.60;;;20.70;64.60;;;;;;5045213;28;20033;-75
2023/03/27 05:34:39;;;;;;;18.67;9.50;;;20.80;65.40;;;;;;5052290;28;20033;-75
2023/03/27 05:37:09;;;;;;;19.73;9.25;;;20.80;64.90;;;;;;5018405;28;20033;-75
2023/03/27 05:39:53;;;;;;;20.08;9.68;;;20.80;64.90;;;;;;5021598;28;20025;-75
2023/03/27 05:42:19;;;;;;;20.05;9.48;;;20.80;64.90;;;;;;5035655;28;20402;-77
2023/03/27 05:44:45;;;;;;;18.95;9.32;;;20.80;64.80;;;;;;5052914;28;20029;-75
2023/03/27 05:47:13;;;;;;;21.50;9.25;;;20.80;64.90;;;;;;5035297;28;20037;-75
2023/03/27 05:49:39;;;;;;;21.27;9.85;;;20.80;64.60;;;;;;5052318;28;20103;-75
2023/03/27 05:52:10;;;;;;;19.52;9.25;;;20.80;64.80;;;;;;5035659;28;20025;-75
2023/03/27 05:54:36;;;;;;;18.35;9.20;;;20.70;65.30;;;;;;5035064;28;20040;-75
2023/03/27 05:57:07;;;;;;;18.63;9.38;;;20.80;65.10;;;;;;5034974;28;20028;-75
2023/03/27 05:59:33;;;;;;;18.35;8.55;;;20.80;64.80;;;;;;5035427;28;20028;-75
2023/03/27 06:02:12;;;;;;;19.97;8.90;;;20.70;64.80;;;;;;5034930;28;20083;-75
2023/03/27 06:04:46;;;;;;;19.33;8.63;;;20.70;64.70;;;;;;5030588;28;20029;-75
2023/03/27 06:07:24;;;;;;;20.90;9.65;;;20.70;64.50;;;;;;5031496;28;20021;-75
2023/03/27 06:09:50;;;;;;;19.30;9.00;;;20.80;64.60;;;;;;5049583;28;20030;-75
2023/03/27 06:12:31;;;;;;;17.67;9.13;;;20.70;64.70;;;;;;5053144;28;20079;-75
2023/03/27 06:15:08;;;;;;;16.58;8.73;;;20.70;64.60;;;;;;5035153;28;20051;-75
2023/03/27 06:17:42;;;;;;;18.85;8.80;;;20.70;64.40;;;;;;5018539;28;20467;-75
2023/03/27 06:20:11;;;;;;;18.63;9.07;;;20.70;64.70;;;;;;5034802;28;20032;-75
2023/03/27 06:22:43;;;;;;;18.30;8.02;;;20.70;64.50;;;;;;5018341;28;20033;-75
2023/03/27 06:25:10;;;;;;;18.00;8.20;;;20.70;64.60;;;;;;5034500;28;20060;-75
2023/03/27 06:27:36;;;;;;;18.00;8.70;;;20.70;64.30;;;;;;5034537;28;20036;-75
2023/03/27 06:30:03;;;;;;;16.67;8.50;;;20.70;64.70;;;;;;5034462;28;20033;-75
2023/03/27 06:32:30;;;;;;;19.05;8.82;;;20.70;64.40;;;;;;5034767;28;20426;-74
2023/03/27 06:34:56;;;;;;;25.13;9.68;;;20.80;64.50;;;;;;5052467;28;20526;-75
2023/03/27 06:37:44;;;;;;;16.67;8.85;;;20.80;67.10;;;;;;5051067;28;20029;-85
2023/03/27 06:40:19;;;;;;;17.65;7.78;;;20.80;64.70;;;;;;5050855;28;20024;-85
2023/03/27 06:43:02;;;;;;;19.48;8.40;;;20.80;64.50;;;;;;5034392;28;20613;-83
2023/03/27 06:45:49;;;;;;;18.48;8.48;;;20.80;64.30;;;;;;5051245;28;20045;-84
2023/03/27 06:48:17;;;;;;;18.13;8.77;;;20.80;64.30;;;;;;5051985;28;20025;-83
2023/03/27 06:50:45;;;;;;;16.52;7.82;;;20.80;64.20;;;;;;5002109;28;20041;-88
2023/03/27 06:53:16;;;;;;;18.38;8.05;;;20.80;64.10;;;;;;5034935;28;20032;-87
2023/03/27 06:55:44;;;;;;;16.70;8.48;;;20.70;64.00;;;;;;5035229;28;20029;-86
2023/03/27 06:58:15;;;;;;;19.55;7.97;;;20.70;64.00;;;;;;5033619;28;20122;-87
2023/03/27 07:00:41;;;;;;;18.35;8.02;;;20.80;64.10;;;;;;5047772;28;20025;-85
2023/03/27 07:03:30;;;;;;;18.10;7.93;;;20.70;63.90;;;;;;5027878;28;20044;-84
2023/03/27 07:06:28;;;;;;;18.55;8.05;;;20.70;63.80;;;;;;5017937;28;20395;-85
2023/03/27 07:09:02;;;;;;;16.27;7.97;;;20.70;63.80;;;;;;5017819;28;20036;-83
2023/03/27 07:11:29;;;;;;;16.05;7.95;;;20.70;63.70;;;;;;5034030;28;20040;-84
2023/03/27 07:13:59;;;;;;;18.17;7.45;;;20.70;63.60;;;;;;5033976;28;20047;-82
2023/03/27 07:16:26;;;;;;;17.73;7.75;;;20.70;63.70;;;;;;5033865;28;20037;-84
2023/03/27 07:18:52;;;;;;;15.60;7.60;;;20.70;63.60;;;;;;5033977;28;20039;-85
2023/03/27 07:21:19;;;;;;;20.80;8.00;;;20.70;63.60;;;;;;5034390;28;20028;-87
2023/03/27 07:23:45;;;;;;;15.38;7.60;;;20.70;63.50;;;;;;5034553;28;20025;-85
2023/03/27 07:26:15;;;;;;;16.75;7.80;;;20.70;63.40;;;;;;5034331;28;20397;-84
2023/03/27 07:28:53;;;;;;;16.13;7.55;;;20.70;63.50;;;;;;5034001;28;20032;-86
2023/03/27 07:31:19;;;;;;;17.67;8.07;;;20.70;63.40;;;;;;5040231;28;20426;-84
2023/03/27 07:33:46;;;;;;;15.50;7.72;;;20.70;63.30;;;;;;5014485;28;20104;-86
2023/03/27 07:36:13;;;;;;;14.73;7.10;;;20.70;63.20;;;;;;5014061;28;20029;-84
2023/03/27 07:38:59;;;;;;;14.98;7.55;;;20.70;63.20;;;;;;5041521;28;20051;-84
2023/03/27 07:41:30;;;;;;;14.45;7.00;;;20.70;63.10;;;;;;5050616;28;20027;-83
2023/03/27 07:44:17;;;;;;;13.63;7.20;;;20.70;63.10;;;;;;5033888;28;20037;-82
2023/03/27 07:46:54;;;;;;;16.10;7.13;;;20.70;62.90;;;;;;5034861;28;20475;-84
2023/03/27 07:49:20;;;;;;;14.82;7.53;;;20.80;63.10;;;;;;5052080;28;20021;-88
2023/03/27 07:51:46;;;;;;;17.33;7.97;;;20.80;63.00;;;;;;5018468;28;20039;-87
2023/03/27 07:54:12;;;;;;;15.10;7.15;;;20.70;63.00;;;;;;5034565;28;20104;-86
2023/03/27 07:56:40;;;;;;;13.77;6.93;;;20.70;63.00;;;;;;5033689;28;20029;-85
2023/03/27 07:59:29;;;;;;;14.23;7.68;;;20.70;62.90;;;;;;5040907;28;20112;-86
2023/03/27 08:01:58;;;;;;;;;;;20.70;62.90;;;;;;5019642;28;20028;-82
2023/03/27 08:04:27;;;;;;;8.98;3.80;;;20.70;62.50;;;;;;5038322;28;19909;-84
2023/03/27 08:07:04;;;;;;;7.30;2.72;;;20.50;53.60;;;;;;5035977;28;20502;-79
2023/03/27 08:09:30;;;;;;;7.85;3.28;;;20.30;50.40;;;;;;5050595;28;20103;-79
2023/03/27 08:11:56;;;;;;;14.65;3.90;;;20.30;52.20;;;;;;5037014;28;20104;-78
2023/03/27 08:14:25;;;;;;;11.35;3.90;;;20.40;54.80;;;;;;5033248;28;20057;-79
2023/03/27 08:16:52;;;;;;;10.88;3.80;;;20.50;55.10;;;;;;5032906;28;20028;-79
2023/03/27 08:19:24;;;;;;;18.88;4.32;;;20.60;58.80;;;;;;5032027;28;20049;-78
2023/03/27 08:21:54;;;;;;;10.88;4.18;;;20.60;60.20;;;;;;5033813;28;20434;-80
2023/03/27 08:24:20;;;;;;;13.05;4.43;;;20.70;59.40;;;;;;5018310;28;20035;-78
2023/03/27 08:27:12;;;;;;;17.45;4.25;;;20.80;61.20;;;;;;5046591;28;20455;-79
2023/03/27 08:29:42;;;;;;;16.33;4.22;;;20.90;61.70;;;;;;5024559;28;20463;-80
2023/03/27 08:32:11;;;;;;;12.45;4.65;;;21.00;62.50;;;;;;5027681;28;20031;-79
2023/03/27 08:34:41;;;;;;;13.43;4.75;;;21.00;63.40;;;;;;5049394;28;20029;-80
2023/03/27 08:37:07;;;;;;;14.05;4.55;;;21.10;63.30;;;;;;5032718;28;20029;-78
2023/03/27 08:39:57;;;;;;;19.42;5.28;;;21.10;63.20;;;;;;5032597;28;20414;-79
2023/03/27 08:42:34;;;;;;;16.57;4.47;;;21.10;63.70;;;;;;5038525;28;20029;-77
2023/03/27 08:45:09;;;;;;;27.05;4.50;;;21.10;63.50;;;;;;5032804;28;20039;-76
2023/03/27 08:47:49;;;;;;;35.50;6.03;;;21.10;63.70;;;;;;5032289;28;20064;-78
2023/03/27 08:50:45;;;;;;;20.92;5.35;;;21.10;64.20;;;;;;5032403;28;20439;-77
2023/03/27 08:53:33;;;;;;;20.23;5.20;;;21.10;64.00;;;;;;5017473;28;20029;-76
2023/03/27 08:56:02;;;;;;;18.20;4.78;;;21.00;63.60;;;;;;5032004;28;20542;-77
2023/03/27 08:58:36;;;;;;;15.40;4.32;;;21.00;63.10;;;;;;5032394;28;20032;-78
2023/03/27 09:01:37;;;;;;;16.02;4.85;;;21.00;63.50;;;;;;5032789;28;20029;-80
2023/03/27 09:04:26;;;;;;;16.77;4.40;;;20.90;64.30;;;;;;5033020;28;20025;-75
2023/03/27 09:07:07;;;;;;;16.30;4.43;;;20.90;64.10;;;;;;5016420;28;20443;-77
2023/03/27 09:10:03;;;;;;;15.43;4.15;;;20.90;63.00;;;;;;5032581;28;20033;-77
2023/03/27 09:12:48;;;;;;;19.92;5.53;;;20.90;61.70;;;;;;5032261;28;20033;-78
2023/03/27 09:15:24;;;;;;;17.52;4.80;;;20.90;60.20;;;;;;5031736;28;20437;-77
2023/03/27 09:18:15;;;;;;;17.40;4.07;;;20.90;61.10;;;;;;5031902;28;20395;-77
2023/03/27 09:21:09;;;;;;;20.90;4.90;;;20.80;61.50;;;;;;5034004;28;20025;-76
2023/03/27 09:23:44;;;;;;;16.65;4.85;;;20.90;62.10;;;;;;5032436;28;20033;-76
2023/03/27 09:26:33;;;;;;;17.70;5.10;;;20.90;61.80;;;;;;5039067;28;20025;-76
2023/03/27 09:29:23;;;;;;;18.48;4.70;;;20.90;61.80;;;;;;5039349;28;20123;-76
2023/03/27 09:31:57;;;;;;;13.65;4.15;;;20.90;62.00;;;;;;5036146;28;20418;-77
2023/03/27 09:34:28;;;;;;;12.45;3.92;;;20.90;62.30;;;;;;5035936;28;20060;-77
2023/03/27 09:36:54;;;;;;;12.02;4.13;;;20.90;62.40;;;;;;5035925;28;20029;-78
2023/03/27 09:39:31;;;;;;;12.20;4.18;;;20.90;62.60;;;;;;5019383;28;20548;-77
2023/03/27 09:42:25;;;;;;;13.55;4.03;;;21.00;62.90;;;;;;5048822;28;20410;-77
2023/03/27 09:44:57;;;;;;;11.88;4.40;;;21.00;63.20;;;;;;5035626;28;20493;-78
2023/03/27 09:47:41;;;;;;;14.93;4.30;;;21.00;63.30;;;;;;5035727;28;20142;-77
2023/03/27 09:50:19;;;;;;;13.43;4.15;;;21.00;63.20;;;;;;5035817;28;20029;-78
2023/03/27 09:53:18;;;;;;;9.65;3.83;;;21.00;63.50;;;;;;5035602;28;20036;-77
2023/03/27 09:55:58;;;;;;;12.80;4.03;;;21.00;63.10;;;;;;5035556;28;20486;-77
2023/03/27 09:58:45;;;;;;;14.13;4.20;;;21.00;63.40;;;;;;5035236;28;20291;-77
2023/03/27 10:01:15;;;;;;;11.70;3.70;;;21.00;63.60;;;;;;5035674;28;20029;-77
2023/03/27 10:03:49;;;;;;;11.38;3.85;;;20.90;63.00;;;;;;5035678;28;20398;-77
2023/03/27 10:06:47;;;;;;;8.73;4.07;;;20.90;63.00;;;;;;5035458;28;20021;-77
2023/03/27 10:09:26;;;;;;;10.80;4.50;;;20.90;62.80;;;;;;5035086;28;20065;-77
2023/03/27 10:12:08;;;;;;;11.48;3.80;;;20.90;62.80;;;;;;5035297;28;20087;-78
2023/03/27 10:14:42;;;;;;;13.07;4.30;;;20.90;62.70;;;;;;5035384;28;20029;-77
2023/03/27 10:17:47;;;;;;;10.60;4.25;;;20.90;62.40;;;;;;5035145;28;20163;-77
2023/03/27 10:20:16;;;;;;;10.50;4.32;;;20.90;62.30;;;;;;5014262;28;20045;-77
2023/03/27 10:22:53;;;;;;;11.30;3.90;;;20.90;62.70;;;;;;5035054;28;20064;-76
2023/03/27 10:25:30;;;;;;;15.68;4.30;;;20.90;62.80;;;;;;5034950;28;20479;-77
2023/03/27 10:28:16;;;;;;;9.30;4.00;;;20.90;62.60;;;;;;5034719;28;20043;-77
2023/03/27 10:31:29;;;;;;;15.68;4.75;;;20.90;62.70;;;;;;5036607;28;20036;-77
2023/03/27 10:34:31;;;;;;;10.73;4.32;;;20.90;62.50;;;;;;5034971;28;20061;-77
2023/03/27 10:37:26;;;;;;;11.15;4.00;;;20.90;62.50;;;;;;5052301;28;20029;-77
2023/03/27 10:40:06;;;;;;;8.77;3.83;;;20.90;62.40;;;;;;5034726;28;20453;-77
2023/03/27 10:42:37;;;;;;;11.02;4.43;;;20.90;62.30;;;;;;5034790;28;20498;-77
2023/03/27 10:45:03;;;;;;;9.93;3.55;;;20.90;62.90;;;;;;5034504;28;20064;-77
2023/03/27 10:47:32;;;;;;;10.82;3.78;;;20.90;62.50;;;;;;5034621;28;20465;-77
2023/03/27 10:50:20;;;;;;;10.43;3.65;;;20.90;62.70;;;;;;5034664;28;20475;-77
2023/03/27 10:53:14;;;;;;;11.38;3.97;;;20.90;62.60;;;;;;5034432;28;20478;-77
2023/03/27 10:56:10;;;;;;;9.73;3.97;;;20.90;62.60;;;;;;5034494;28;20059;-77
2023/03/27 10:58:46;;;;;;;9.93;3.30;;;20.90;62.60;;;;;;5034088;28;20033;-77
2023/03/27 11:01:36;;;;;;;10.73;3.70;;;20.90;62.60;;;;;;5034403;28;20029;-77
2023/03/27 11:04:24;;;;;;;10.73;3.95;;;20.90;62.80;;;;;;5034285;28;20037;-77
2023/03/27 11:07:02;;;;;;;10.38;3.70;;;20.80;62.60;;;;;;5034222;28;20104;-77
2023/03/27 11:09:41;;;;;;;7.00;3.50;;;20.80;62.60;;;;;;5017960;28;20127;-77
2023/03/27 11:12:13;;;;;;;9.80;3.85;;;20.80;63.20;;;;;;5034314;28;20274;-77
2023/03/27 11:14:55;;;;;;;7.72;3.30;;;20.80;62.80;;;;;;5034074;28;20407;-77
2023/03/27 11:17:30;;;;;;;7.50;3.22;;;20.80;62.90;;;;;;5033728;28;20043;-77
2023/03/27 11:20:21;;;;;;;7.85;3.55;;;20.80;62.80;;;;;;5034152;28;20033;-77
2023/03/27 11:23:14;;;;;;;8.35;3.17;;;20.80;62.60;;;;;;5050733;28;20032;-77
2023/03/27 11:26:01;;;;;;;7.70;3.30;;;20.80;62.50;;;;;;5051872;28;20494;-77
2023/03/27 11:28:42;;;;;;;6.78;3.35;;;20.90;62.60;;;;;;5033848;28;20421;-77
2023/03/27 11:31:44;;;;;;;9.15;3.42;;;20.80;62.30;;;;;;5033926;28;20037;-77
2023/03/27 11:34:31;;;;;;;8.02;3.53;;;20.80;62.40;;;;;;5033782;28;20061;-77
2023/03/27 11:37:22;;;;;;;6.85;3.38;;;20.90;62.40;;;;;;5033540;28;20474;-77
2023/03/27 11:40:08;;;;;;;8.25;3.60;;;20.90;62.40;;;;;;5050531;28;20055;-77
2023/03/27 11:42:39;;;;;;;9.88;3.45;;;20.90;62.20;;;;;;5017301;28;20025;-77
2023/03/27 11:45:15;;;;;;;8.68;3.50;;;20.90;62.20;;;;;;5017509;28;20086;-77
2023/03/27 11:48:16;;;;;;;10.52;3.70;;;20.90;61.90;;;;;;5033563;28;20068;-77
2023/03/27 11:50:58;;;;;;;10.75;3.53;;;20.90;62.20;;;;;;5033889;28;20024;-78
2023/03/27 11:54:02;;;;;;;9.60;3.50;;;20.90;62.00;;;;;;5033568;28;20025;-78
2023/03/27 11:56:55;;;;;;;8.60;3.13;;;20.90;61.90;;;;;;5051630;28;20490;-78
2023/03/27 12:00:10;;;;;;;8.15;3.78;;;20.90;62.20;;;;;;5033610;28;20029;-77
2023/03/27 12:02:55;;;;;;;8.15;3.75;;;20.90;62.10;;;;;;5051273;28;20029;-78
2023/03/27 12:05:54;;;;;;;7.60;3.50;;;20.90;62.10;;;;;;5034374;28;20057;-78
2023/03/27 12:08:32;;;;;;;5.75;3.08;;;20.90;62.20;;;;;;5033824;28;20060;-79
2023/03/27 12:11:03;;;;;;;6.72;3.17;;;20.90;62.20;;;;;;5033585;28;20047;-79
2023/03/27 12:13:48;;;;;;;7.18;3.15;;;20.80;62.30;;;;;;5050065;28;20448;-78
2023/03/27 12:16:41;;;;;;;8.82;3.70;;;20.80;62.60;;;;;;5033802;28;20106;-79
2023/03/27 12:19:20;;;;;;;6.03;3.30;;;20.80;62.50;;;;;;5033306;28;20471;-77
2023/03/27 12:22:24;;;;;;;7.35;3.55;;;20.80;62.70;;;;;;5033440;28;20214;-79
2023/03/27 12:25:20;;;;;;;6.88;3.17;;;20.80;62.60;;;;;;5051223;28;20538;-78
2023/03/27 12:28:53;;;;;;;7.30;3.40;;;20.80;62.70;;;;;;5035697;28;20029;-78
2023/03/27 12:31:58;;;;;;;7.68;3.30;;;20.80;62.60;;;;;;5039646;28;20090;-79
2023/03/27 12:34:51;;;;;;;7.75;3.67;;;20.90;62.50;;;;;;5017036;28;20479;-77
2023/03/27 12:37:47;;;;;;;6.25;3.25;;;20.90;62.40;;;;;;5032874;28;20032;-78
2023/03/27 12:40:33;;;;;;;7.25;3.40;;;20.80;62.40;;;;;;5032561;28;20486;-77
2023/03/27 12:43:28;;;;;;;7.72;3.50;;;20.90;62.30;;;;;;5044432;28;20033;-78
2023/03/27 12:46:39;;;;;;;6.00;3.00;;;20.90;62.30;;;;;;5033877;28;20038;-78
2023/03/27 12:49:10;;;;;;;6.47;3.30;;;20.90;62.30;;;;;;5047473;28;20095;-78
2023/03/27 12:51:53;;;;;;;5.97;3.05;;;20.90;62.00;;;;;;5019545;28;20061;-76
2023/03/27 12:54:37;;;;;;;4.43;2.85;;;20.80;62.20;;;;;;5033557;28;20393;-78
2023/03/27 12:57:23;;;;;;;6.85;3.25;;;20.80;62.20;;;;;;5055341;28;20025;-77
2023/03/27 13:00:00;;;;;;;7.78;3.28;;;20.80;62.30;;;;;;5037299;28;20033;-79
2023/03/27 13:02:34;;;;;;;7.78;3.22;;;20.80;62.20;;;;;;5037437;28;20021;-78
2023/03/27 13:05:10;;;;;;;10.00;3.67;;;20.80;62.20;;;;;;5037719;28;20089;-79
2023/03/27 13:07:56;;;;;;;5.68;2.97;;;20.80;62.40;;;;;;5020734;28;20437;-79
2023/03/27 13:10:53;;;;;;;6.90;3.28;;;20.80;62.30;;;;;;5054845;28;20032;-79
2023/03/27 13:13:41;;;;;;;7.20;3.20;;;20.80;62.20;;;;;;5037052;28;20457;-78
2023/03/27 13:16:29;;;;;;;5.70;2.97;;;20.80;62.40;;;;;;5037224;28;20035;-79
2023/03/27 13:19:06;;;;;;;6.22;3.30;;;20.80;62.40;;;;;;5036656;28;20088;-78
2023/03/27 13:22:13;;;;;;;5.53;3.25;;;20.80;62.30;;;;;;5037601;28;20064;-78
2023/03/27 13:24:57;;;;;;;9.30;3.50;;;20.80;62.30;;;;;;5037845;28;20481;-77
2023/03/27 13:27:43;;;;;;;7.75;3.10;;;20.80;62.20;;;;;;5038126;28;20060;-78